createdAt,value
2017-11-07T00:00:39.579Z,5.24
2017-11-07T00:01:20.105Z,5.24
2017-11-07T00:02:00.623Z,5.21
2017-11-07T00:02:41.154Z,5.17
2017-11-07T00:03:21.693Z,5.24
2017-11-07T00:04:02.228Z,5.18
2017-11-07T00:04:42.747Z,5.21
2017-11-07T00:05:23.283Z,5.09
2017-11-07T00:06:03.812Z,5.18
2017-11-07T00:06:44.323Z,5.18
2017-11-07T00:07:24.842Z,5.17
2017-11-07T00:08:05.381Z,5.18
2017-11-07T00:08:45.915Z,5.1
2017-11-07T00:09:26.435Z,5.12
2017-11-07T00:10:06.955Z,5.12
2017-11-07T00:10:47.485Z,5.1
2017-11-07T00:11:28.021Z,5.09
2017-11-07T00:12:08.538Z,5.09
2017-11-07T00:12:49.073Z,5.09
2017-11-07T00:13:29.601Z,5.1
2017-11-07T00:14:10.127Z,5.1
2017-11-07T00:14:50.665Z,5.1
2017-11-07T00:15:31.205Z,5.07
2017-11-07T00:16:11.733Z,5.04
2017-11-07T00:16:52.270Z,5.04
2017-11-07T00:17:32.795Z,4.97
2017-11-07T00:18:13.383Z,4.99
2017-11-07T00:18:53.883Z,4.96
2017-11-07T00:19:34.411Z,5.03
2017-11-07T00:20:14.959Z,5
2017-11-07T00:20:55.483Z,4.97
2017-11-07T00:21:36.013Z,5.04
2017-11-07T00:22:16.544Z,5
2017-11-07T00:22:57.074Z,5
2017-11-07T00:23:37.617Z,5.02
2017-11-07T00:24:18.155Z,4.96
2017-11-07T00:24:58.689Z,5.02
2017-11-07T00:25:39.208Z,4.96
2017-11-07T00:26:19.748Z,4.97
2017-11-07T00:27:00.267Z,4.96
2017-11-07T00:27:40.797Z,4.88
2017-11-07T00:28:21.311Z,4.91
2017-11-07T00:29:01.844Z,4.88
2017-11-07T00:29:42.371Z,4.91
2017-11-07T00:30:22.876Z,4.96
2017-11-07T00:31:03.396Z,4.91
2017-11-07T00:31:43.929Z,4.91
2017-11-07T00:32:24.459Z,4.89
2017-11-07T00:33:04.990Z,4.85
2017-11-07T00:33:45.521Z,4.82
2017-11-07T00:34:26.096Z,4.85
2017-11-07T00:35:06.624Z,4.84
2017-11-07T00:35:47.145Z,4.85
2017-11-07T00:36:27.704Z,4.82
2017-11-07T00:37:08.238Z,4.8
2017-11-07T00:37:48.770Z,4.8
2017-11-07T00:38:29.295Z,4.82
2017-11-07T00:39:09.825Z,4.73
2017-11-07T00:39:50.361Z,4.77
2017-11-07T00:40:30.905Z,4.8
2017-11-07T00:41:11.433Z,4.84
2017-11-07T00:41:51.967Z,4.75
2017-11-07T00:42:32.501Z,4.69
2017-11-07T00:43:13.038Z,4.67
2017-11-07T00:43:53.548Z,4.65
2017-11-07T00:44:34.094Z,4.63
2017-11-07T00:45:14.594Z,4.66
2017-11-07T00:45:55.112Z,4.69
2017-11-07T00:46:35.616Z,4.65
2017-11-07T00:47:16.146Z,4.66
2017-11-07T00:47:56.681Z,4.63
2017-11-07T00:48:37.206Z,4.69
2017-11-07T00:49:17.745Z,4.66
2017-11-07T00:49:58.286Z,4.58
2017-11-07T00:50:38.809Z,4.67
2017-11-07T00:51:19.331Z,4.6
2017-11-07T00:51:59.860Z,4.51
2017-11-07T00:52:40.402Z,4.58
2017-11-07T00:53:20.930Z,4.52
2017-11-07T00:54:01.457Z,4.54
2017-11-07T00:54:41.986Z,4.47
2017-11-07T00:55:22.512Z,4.45
2017-11-07T00:56:03.033Z,4.58
2017-11-07T00:56:43.556Z,4.5
2017-11-07T00:57:24.076Z,4.34
2017-11-07T00:58:04.613Z,4.47
2017-11-07T00:58:45.149Z,4.34
2017-11-07T00:59:25.720Z,4.42
2017-11-07T01:00:06.245Z,4.41
2017-11-07T01:00:46.771Z,4.42
2017-11-07T01:01:27.311Z,4.33
2017-11-07T01:02:07.843Z,4.33
2017-11-07T01:02:48.381Z,4.36
2017-11-07T01:03:28.905Z,4.34
2017-11-07T01:04:09.452Z,4.33
2017-11-07T01:04:49.962Z,4.3
2017-11-07T01:05:30.490Z,4.36
2017-11-07T01:06:11.006Z,4.34
2017-11-07T01:06:51.524Z,4.36
2017-11-07T01:07:32.057Z,4.41
2017-11-07T01:08:12.656Z,4.42
2017-11-07T01:08:53.179Z,4.36
2017-11-07T01:09:33.708Z,4.36
2017-11-07T01:10:14.225Z,4.36
2017-11-07T01:10:54.757Z,4.45
2017-11-07T01:11:35.271Z,4.37
2017-11-07T01:12:15.803Z,4.37
2017-11-07T01:12:56.332Z,4.36
2017-11-07T01:13:36.861Z,4.4
2017-11-07T01:14:17.387Z,4.37
2017-11-07T01:14:57.900Z,4.44
2017-11-07T01:15:38.436Z,4.36
2017-11-07T01:16:18.965Z,4.37
2017-11-07T01:16:59.498Z,4.44
2017-11-07T01:17:40.019Z,4.42
2017-11-07T01:18:20.548Z,4.45
2017-11-07T01:19:01.066Z,4.48
2017-11-07T01:19:41.591Z,4.41
2017-11-07T01:20:22.118Z,4.41
2017-11-07T01:21:02.653Z,4.42
2017-11-07T01:21:43.189Z,4.51
2017-11-07T01:22:23.730Z,4.5
2017-11-07T01:23:04.250Z,4.45
2017-11-07T01:23:44.769Z,4.52
2017-11-07T01:24:25.302Z,4.55
2017-11-07T01:25:05.821Z,4.44
2017-11-07T01:25:46.353Z,4.47
2017-11-07T01:26:26.876Z,4.5
2017-11-07T01:27:07.414Z,4.51
2017-11-07T01:27:47.956Z,4.41
2017-11-07T01:28:28.483Z,4.55
2017-11-07T01:29:09.018Z,4.51
2017-11-07T01:29:49.545Z,4.54
2017-11-07T01:30:30.105Z,4.55
2017-11-07T01:31:10.631Z,4.48
2017-11-07T01:31:51.142Z,4.48
2017-11-07T01:32:31.665Z,4.47
2017-11-07T01:33:12.187Z,4.48
2017-11-07T01:33:52.730Z,4.51
2017-11-07T01:34:33.273Z,4.62
2017-11-07T01:35:13.808Z,4.48
2017-11-07T01:35:54.340Z,4.51
2017-11-07T01:36:34.889Z,4.63
2017-11-07T01:37:15.418Z,4.51
2017-11-07T01:37:55.947Z,4.55
2017-11-07T01:38:36.472Z,4.55
2017-11-07T01:39:16.997Z,4.52
2017-11-07T01:39:57.528Z,4.55
2017-11-07T01:40:38.059Z,4.54
2017-11-07T01:41:18.585Z,4.48
2017-11-07T01:41:59.117Z,4.58
2017-11-07T01:42:39.646Z,4.55
2017-11-07T01:43:20.167Z,4.5
2017-11-07T01:44:00.695Z,4.45
2017-11-07T01:44:41.242Z,4.52
2017-11-07T01:45:21.766Z,4.58
2017-11-07T01:46:02.304Z,4.5
2017-11-07T01:46:42.823Z,4.5
2017-11-07T01:47:23.364Z,4.65
2017-11-07T01:48:03.899Z,4.59
2017-11-07T01:48:44.407Z,4.67
2017-11-07T01:49:24.931Z,4.66
2017-11-07T01:50:05.472Z,4.67
2017-11-07T01:50:45.998Z,4.69
2017-11-07T01:51:26.524Z,4.69
2017-11-07T01:52:07.072Z,4.69
2017-11-07T01:52:47.579Z,4.72
2017-11-07T01:53:28.142Z,4.7
2017-11-07T01:54:08.626Z,4.72
2017-11-07T01:54:49.161Z,4.67
2017-11-07T01:55:29.704Z,4.8
2017-11-07T01:56:10.222Z,4.77
2017-11-07T01:56:50.749Z,4.78
2017-11-07T01:57:31.286Z,4.8
2017-11-07T01:58:11.831Z,4.8
2017-11-07T01:58:52.387Z,4.75
2017-11-07T01:59:32.865Z,4.86
2017-11-07T02:00:13.385Z,4.72
2017-11-07T02:00:53.929Z,4.7
2017-11-07T02:01:34.453Z,4.7
2017-11-07T02:02:14.970Z,4.66
2017-11-07T02:02:55.505Z,4.78
2017-11-07T02:03:36.038Z,4.78
2017-11-07T02:04:16.570Z,4.8
2017-11-07T02:04:57.108Z,4.8
2017-11-07T02:05:37.644Z,4.72
2017-11-07T02:06:18.178Z,4.85
2017-11-07T02:06:58.695Z,4.75
2017-11-07T02:07:39.229Z,4.75
2017-11-07T02:08:19.756Z,4.75
2017-11-07T02:09:00.291Z,4.78
2017-11-07T02:09:40.856Z,4.85
2017-11-07T02:10:21.388Z,4.8
2017-11-07T02:11:01.921Z,4.8
2017-11-07T02:11:42.437Z,4.72
2017-11-07T02:12:22.974Z,4.7
2017-11-07T02:13:03.504Z,4.66
2017-11-07T02:13:50.787Z,4.62
2017-11-07T02:14:31.356Z,4.66
2017-11-07T02:15:11.886Z,4.69
2017-11-07T02:15:52.415Z,4.63
2017-11-07T02:16:32.943Z,4.52
2017-11-07T02:17:13.474Z,4.45
2017-11-07T02:17:53.999Z,4.48
2017-11-07T02:18:34.527Z,4.44
2017-11-07T02:19:15.065Z,4.36
2017-11-07T02:19:55.600Z,4.48
2017-11-07T02:20:36.131Z,4.42
2017-11-07T02:21:16.665Z,4.36
2017-11-07T02:21:57.211Z,4.36
2017-11-07T02:22:37.740Z,4.36
2017-11-07T02:23:18.262Z,4.32
2017-11-07T02:23:58.789Z,4.36
2017-11-07T02:24:39.312Z,4.29
2017-11-07T02:25:19.838Z,4.24
2017-11-07T02:26:00.361Z,4.24
2017-11-07T02:26:40.901Z,4.29
2017-11-07T02:27:21.431Z,4.24
2017-11-07T02:28:01.972Z,4.15
2017-11-07T02:28:42.504Z,4.14
2017-11-07T02:29:23.041Z,4.15
2017-11-07T02:30:03.564Z,4.12
2017-11-07T02:30:44.110Z,4.14
2017-11-07T02:31:24.640Z,4.18
2017-11-07T02:32:05.149Z,4.14
2017-11-07T02:32:45.678Z,4.18
2017-11-07T02:33:26.210Z,4.22
2017-11-07T02:34:06.735Z,4.24
2017-11-07T02:34:47.263Z,4.23
2017-11-07T02:35:27.790Z,4.26
2017-11-07T02:36:08.321Z,4.23
2017-11-07T02:36:48.858Z,4.22
2017-11-07T02:37:29.398Z,4.26
2017-11-07T02:38:09.916Z,4.16
2017-11-07T02:38:50.445Z,4.26
2017-11-07T02:39:30.970Z,4.36
2017-11-07T02:40:11.499Z,4.33
2017-11-07T02:40:52.041Z,4.33
2017-11-07T02:41:32.566Z,4.36
2017-11-07T02:42:13.099Z,4.37
2017-11-07T02:42:53.659Z,4.33
2017-11-07T02:43:34.193Z,4.36
2017-11-07T02:44:14.717Z,4.32
2017-11-07T02:44:55.235Z,4.44
2017-11-07T02:45:35.775Z,4.42
2017-11-07T02:46:16.312Z,4.37
2017-11-07T02:46:56.820Z,4.47
2017-11-07T02:47:37.363Z,4.45
2017-11-07T02:48:17.894Z,4.48
2017-11-07T02:48:58.423Z,4.47
2017-11-07T02:49:38.964Z,4.54
2017-11-07T02:50:19.491Z,4.51
2017-11-07T02:51:00.015Z,4.59
2017-11-07T02:51:40.553Z,4.54
2017-11-07T02:52:21.098Z,4.54
2017-11-07T02:53:01.632Z,4.67
2017-11-07T02:53:42.159Z,4.67
2017-11-07T02:54:22.698Z,4.65
2017-11-07T02:55:03.240Z,4.67
2017-11-07T02:55:43.771Z,4.73
2017-11-07T02:56:24.285Z,4.69
2017-11-07T02:57:04.798Z,4.67
2017-11-07T02:57:45.346Z,4.73
2017-11-07T02:58:25.862Z,4.77
2017-11-07T02:59:06.399Z,4.67
2017-11-07T02:59:46.929Z,4.77
2017-11-07T03:00:27.454Z,4.8
2017-11-07T03:01:07.997Z,4.75
2017-11-07T03:01:48.528Z,4.78
2017-11-07T03:02:29.082Z,4.75
2017-11-07T03:03:09.587Z,4.78
2017-11-07T03:03:50.124Z,4.82
2017-11-07T03:04:30.635Z,4.92
2017-11-07T03:05:11.165Z,4.88
2017-11-07T03:05:51.692Z,4.89
2017-11-07T03:06:32.231Z,4.88
2017-11-07T03:07:12.761Z,4.94
2017-11-07T03:07:53.293Z,4.94
2017-11-07T03:08:33.819Z,4.91
2017-11-07T03:09:14.345Z,4.92
2017-11-07T03:09:54.867Z,4.99
2017-11-07T03:10:35.397Z,4.89
2017-11-07T03:11:15.911Z,4.99
2017-11-07T03:11:56.448Z,4.97
2017-11-07T03:12:36.983Z,4.99
2017-11-07T03:13:17.508Z,4.97
2017-11-07T03:13:58.033Z,5.03
2017-11-07T03:14:38.569Z,4.96
2017-11-07T03:15:19.117Z,4.97
2017-11-07T03:15:59.642Z,5
2017-11-07T03:16:40.178Z,4.96
2017-11-07T03:17:20.705Z,5.09
2017-11-07T03:18:01.296Z,4.97
2017-11-07T03:18:41.765Z,5.04
2017-11-07T03:19:22.282Z,5.02
2017-11-07T03:20:02.799Z,5.03
2017-11-07T03:20:43.335Z,4.94
2017-11-07T03:21:23.866Z,4.91
2017-11-07T03:22:04.415Z,5.04
2017-11-07T03:22:44.964Z,5.04
2017-11-07T03:23:25.496Z,5.03
2017-11-07T03:24:06.013Z,5.04
2017-11-07T03:24:46.536Z,5.02
2017-11-07T03:25:27.062Z,4.97
2017-11-07T03:26:07.571Z,4.96
2017-11-07T03:26:48.091Z,5.04
2017-11-07T03:27:28.612Z,5.04
2017-11-07T03:28:09.131Z,5.06
2017-11-07T03:28:49.661Z,5.04
2017-11-07T03:29:30.178Z,5.04
2017-11-07T03:30:10.704Z,4.96
2017-11-07T03:30:51.245Z,4.97
2017-11-07T03:31:31.766Z,5.02
2017-11-07T03:32:12.302Z,5
2017-11-07T03:32:52.829Z,5.04
2017-11-07T03:33:33.369Z,4.96
2017-11-07T03:34:13.905Z,5.04
2017-11-07T03:34:54.436Z,5.04
2017-11-07T03:35:34.963Z,4.92
2017-11-07T03:36:15.493Z,4.97
2017-11-07T03:36:56.031Z,5.1
2017-11-07T03:37:36.555Z,4.94
2017-11-07T03:38:17.092Z,4.97
2017-11-07T03:38:57.630Z,4.92
2017-11-07T03:39:38.162Z,4.92
2017-11-07T03:40:18.696Z,4.94
2017-11-07T03:40:59.239Z,4.99
2017-11-07T03:41:39.761Z,4.99
2017-11-07T03:42:20.300Z,5
2017-11-07T03:43:00.838Z,5.03
2017-11-07T03:43:41.371Z,4.92
2017-11-07T03:44:21.898Z,5.03
2017-11-07T03:45:02.437Z,5.06
2017-11-07T03:45:42.975Z,5.03
2017-11-07T03:46:23.510Z,4.97
2017-11-07T03:47:04.047Z,5.07
2017-11-07T03:47:44.575Z,5.09
2017-11-07T03:48:25.104Z,5.07
2017-11-07T03:49:05.642Z,5.09
2017-11-07T03:49:46.171Z,5.09
2017-11-07T03:50:26.708Z,5.12
2017-11-07T03:51:07.230Z,5.07
2017-11-07T03:51:47.754Z,5.07
2017-11-07T03:52:28.287Z,5.09
2017-11-07T03:53:08.813Z,5.07
2017-11-07T03:53:49.346Z,5.06
2017-11-07T03:54:29.877Z,5.09
2017-11-07T03:55:10.420Z,5.07
2017-11-07T03:55:50.956Z,5.1
2017-11-07T03:56:31.492Z,5.07
2017-11-07T03:57:12.022Z,5.06
2017-11-07T03:57:52.551Z,5.04
2017-11-07T03:58:33.078Z,5.04
2017-11-07T03:59:13.617Z,5.1
2017-11-07T03:59:54.143Z,4.96
2017-11-07T04:00:34.669Z,4.94
2017-11-07T04:01:15.187Z,4.94
2017-11-07T04:01:55.708Z,4.99
2017-11-07T04:02:36.243Z,4.96
2017-11-07T04:03:16.779Z,4.97
2017-11-07T04:03:57.324Z,4.97
2017-11-07T04:04:37.835Z,5.02
2017-11-07T04:05:18.353Z,4.97
2017-11-07T04:05:58.872Z,5
2017-11-07T04:06:39.394Z,4.89
2017-11-07T04:07:19.939Z,4.99
2017-11-07T04:08:00.469Z,4.92
2017-11-07T04:08:40.991Z,4.92
2017-11-07T04:09:21.547Z,5.02
2017-11-07T04:10:02.076Z,4.96
2017-11-07T04:10:42.615Z,4.96
2017-11-07T04:11:23.140Z,4.96
2017-11-07T04:12:03.665Z,5.02
2017-11-07T04:12:44.201Z,5.04
2017-11-07T04:13:24.731Z,4.94
2017-11-07T04:14:05.273Z,4.97
2017-11-07T04:14:45.792Z,4.97
2017-11-07T04:15:26.319Z,4.99
2017-11-07T04:16:06.858Z,4.97
2017-11-07T04:16:47.383Z,4.97
2017-11-07T04:17:27.920Z,5.04
2017-11-07T04:18:08.451Z,5.03
2017-11-07T04:18:48.977Z,4.99
2017-11-07T04:19:29.501Z,5
2017-11-07T04:20:10.107Z,4.97
2017-11-07T04:20:50.729Z,4.96
2017-11-07T04:21:31.279Z,5.02
2017-11-07T04:22:11.816Z,4.97
2017-11-07T04:22:52.341Z,5.02
2017-11-07T04:23:32.885Z,4.94
2017-11-07T04:24:13.414Z,4.94
2017-11-07T04:24:53.936Z,5.04
2017-11-07T04:25:34.479Z,4.99
2017-11-07T04:26:15.032Z,4.96
2017-11-07T04:26:55.723Z,4.99
2017-11-07T04:27:36.254Z,4.92
2017-11-07T04:28:16.786Z,5
2017-11-07T04:28:57.459Z,4.94
2017-11-07T04:29:38.101Z,5
2017-11-07T04:30:18.625Z,4.94
2017-11-07T04:30:59.155Z,4.99
2017-11-07T04:31:39.694Z,4.94
2017-11-07T04:32:20.238Z,5
2017-11-07T04:33:00.773Z,4.96
2017-11-07T04:33:41.330Z,4.94
2017-11-07T04:34:21.849Z,5.06
2017-11-07T04:35:02.387Z,5.09
2017-11-07T04:35:43.302Z,5.02
2017-11-07T04:36:23.913Z,5.02
2017-11-07T04:37:04.749Z,4.99
2017-11-07T04:37:45.369Z,5.06
2017-11-07T04:38:25.925Z,4.89
2017-11-07T04:39:06.529Z,4.99
2017-11-07T04:39:47.051Z,4.99
2017-11-07T04:40:27.588Z,4.97
2017-11-07T04:41:08.102Z,4.97
2017-11-07T04:41:48.644Z,4.99
2017-11-07T04:42:29.172Z,4.92
2017-11-07T04:43:09.700Z,4.89
2017-11-07T04:43:50.248Z,4.92
2017-11-07T04:44:30.797Z,4.89
2017-11-07T04:45:11.361Z,4.91
2017-11-07T04:45:51.885Z,4.88
2017-11-07T04:46:32.430Z,4.91
2017-11-07T04:47:12.953Z,4.86
2017-11-07T04:47:53.480Z,4.88
2017-11-07T04:48:34.021Z,4.82
2017-11-07T04:49:14.540Z,4.77
2017-11-07T04:49:55.058Z,4.82
2017-11-07T04:50:35.571Z,4.72
2017-11-07T04:51:16.133Z,4.78
2017-11-07T04:51:56.685Z,4.8
2017-11-07T04:52:37.217Z,4.73
2017-11-07T04:53:17.812Z,4.7
2017-11-07T04:53:58.315Z,4.72
2017-11-07T04:54:38.848Z,4.67
2017-11-07T04:55:19.365Z,4.62
2017-11-07T04:55:59.910Z,4.6
2017-11-07T04:56:40.415Z,4.54
2017-11-07T04:57:20.949Z,4.54
2017-11-07T04:58:01.483Z,4.5
2017-11-07T04:58:42.016Z,4.52
2017-11-07T04:59:22.543Z,4.58
2017-11-07T05:00:03.071Z,4.62
2017-11-07T05:00:43.598Z,4.6
2017-11-07T05:01:24.146Z,4.62
2017-11-07T05:02:04.675Z,4.58
2017-11-07T05:02:45.202Z,4.59
2017-11-07T05:03:25.725Z,4.62
2017-11-07T05:04:06.270Z,4.65
2017-11-07T05:04:46.799Z,4.69
2017-11-07T05:05:27.339Z,4.62
2017-11-07T05:06:07.866Z,4.69
2017-11-07T05:06:48.392Z,4.67
2017-11-07T05:07:28.924Z,4.69
2017-11-07T05:08:09.449Z,4.69
2017-11-07T05:08:49.982Z,4.66
2017-11-07T05:09:30.507Z,4.69
2017-11-07T05:10:11.034Z,4.6
2017-11-07T05:10:51.563Z,4.62
2017-11-07T05:11:32.091Z,4.65
2017-11-07T05:12:12.615Z,4.65
2017-11-07T05:12:53.144Z,4.65
2017-11-07T05:13:33.684Z,4.58
2017-11-07T05:14:14.205Z,4.52
2017-11-07T05:14:54.723Z,4.58
2017-11-07T05:15:35.258Z,4.6
2017-11-07T05:16:15.777Z,4.59
2017-11-07T05:16:56.317Z,4.6
2017-11-07T05:17:36.851Z,4.48
2017-11-07T05:18:17.366Z,4.55
2017-11-07T05:18:57.888Z,4.55
2017-11-07T05:19:38.406Z,4.47
2017-11-07T05:20:18.920Z,4.52
2017-11-07T05:20:59.449Z,4.47
2017-11-07T05:21:39.974Z,4.45
2017-11-07T05:22:20.502Z,4.45
2017-11-07T05:23:01.024Z,4.36
2017-11-07T05:23:41.570Z,4.41
2017-11-07T05:24:22.092Z,4.42
2017-11-07T05:25:02.940Z,4.33
2017-11-07T05:25:43.480Z,4.33
2017-11-07T05:26:23.975Z,4.29
2017-11-07T05:27:04.502Z,4.34
2017-11-07T05:27:45.042Z,4.34
2017-11-07T05:28:25.599Z,4.33
2017-11-07T05:29:06.616Z,4.26
2017-11-07T05:29:47.660Z,4.27
2017-11-07T05:30:28.175Z,4.24
2017-11-07T05:31:08.710Z,4.16
2017-11-07T05:31:49.234Z,4.2
2017-11-07T05:32:29.745Z,4.23
2017-11-07T05:33:10.253Z,4.22
2017-11-07T05:33:50.778Z,4.29
2017-11-07T05:34:31.291Z,4.16
2017-11-07T05:35:11.827Z,4.26
2017-11-07T05:35:52.334Z,4.15
2017-11-07T05:36:32.829Z,4.2
2017-11-07T05:37:13.410Z,4.27
2017-11-07T05:37:53.892Z,4.16
2017-11-07T05:38:34.422Z,4.12
2017-11-07T05:39:14.946Z,4.22
2017-11-07T05:39:55.476Z,4.22
2017-11-07T05:40:36.054Z,4.27
2017-11-07T05:41:16.572Z,4.33
2017-11-07T05:41:57.106Z,4.2
2017-11-07T05:42:37.645Z,4.22
2017-11-07T05:43:18.154Z,4.24
2017-11-07T05:43:58.737Z,4.2
2017-11-07T05:44:39.246Z,4.3
2017-11-07T05:45:19.751Z,4.32
2017-11-07T05:46:00.297Z,4.22
2017-11-07T05:46:40.876Z,4.27
2017-11-07T05:47:21.377Z,4.23
2017-11-07T05:48:01.904Z,4.22
2017-11-07T05:48:42.426Z,4.16
2017-11-07T05:49:22.953Z,4.29
2017-11-07T05:50:03.508Z,4.32
2017-11-07T05:50:44.036Z,4.32
2017-11-07T05:51:24.567Z,4.27
2017-11-07T05:52:05.095Z,4.2
2017-11-07T05:52:45.627Z,4.23
2017-11-07T05:53:26.153Z,4.3
2017-11-07T05:54:06.695Z,4.3
2017-11-07T05:54:47.214Z,4.16
2017-11-07T05:55:27.749Z,4.24
2017-11-07T05:56:08.282Z,4.16
2017-11-07T05:56:48.792Z,4.2
2017-11-07T05:57:29.323Z,4.22
2017-11-07T05:58:09.853Z,4.18
2017-11-07T05:58:50.373Z,4.24
2017-11-07T05:59:30.905Z,4.2
2017-11-07T06:00:11.429Z,4.2
2017-11-07T06:00:51.937Z,4.3
2017-11-07T06:01:32.456Z,4.29
2017-11-07T06:02:12.974Z,4.36
2017-11-07T06:02:53.500Z,4.33
2017-11-07T06:03:34.033Z,4.37
2017-11-07T06:04:14.567Z,4.3
2017-11-07T06:04:55.098Z,4.29
2017-11-07T06:05:35.607Z,4.37
2017-11-07T06:06:16.105Z,4.36
2017-11-07T06:06:57.584Z,4.3
2017-11-07T06:07:38.110Z,4.22
2017-11-07T06:08:18.640Z,4.34
2017-11-07T06:08:59.160Z,4.34
2017-11-07T06:09:39.690Z,4.33
2017-11-07T06:10:20.204Z,4.32
2017-11-07T06:11:00.749Z,4.32
2017-11-07T06:11:41.285Z,4.33
2017-11-07T06:12:21.810Z,4.33
2017-11-07T06:13:02.337Z,4.34
2017-11-07T06:13:42.867Z,4.4
2017-11-07T06:14:23.387Z,4.37
2017-11-07T06:15:03.918Z,4.24
2017-11-07T06:15:44.459Z,4.36
2017-11-07T06:16:24.980Z,4.3
2017-11-07T06:17:05.510Z,4.33
2017-11-07T06:17:46.033Z,4.32
2017-11-07T06:18:26.562Z,4.33
2017-11-07T06:19:07.090Z,4.3
2017-11-07T06:19:47.593Z,4.34
2017-11-07T06:20:28.101Z,4.36
2017-11-07T06:21:08.614Z,4.4
2017-11-07T06:21:49.144Z,4.4
2017-11-07T06:22:29.668Z,4.37
2017-11-07T06:23:10.175Z,4.36
2017-11-07T06:23:50.713Z,4.42
2017-11-07T06:24:31.242Z,4.34
2017-11-07T06:25:12.075Z,4.41
2017-11-07T06:25:52.596Z,4.37
2017-11-07T06:26:33.128Z,4.42
2017-11-07T06:27:13.669Z,4.4
2017-11-07T06:27:54.209Z,4.42
2017-11-07T06:28:34.756Z,4.34
2017-11-07T06:29:15.283Z,4.4
2017-11-07T06:29:55.814Z,4.44
2017-11-07T06:30:36.345Z,4.42
2017-11-07T06:31:16.869Z,4.45
2017-11-07T06:31:57.398Z,4.36
2017-11-07T06:32:37.910Z,4.41
2017-11-07T06:33:18.430Z,4.47
2017-11-07T06:33:59.099Z,4.45
2017-11-07T06:34:39.638Z,4.52
2017-11-07T06:35:20.155Z,4.55
2017-11-07T06:36:00.712Z,4.45
2017-11-07T06:36:41.208Z,4.51
2017-11-07T06:37:21.738Z,4.52
2017-11-07T06:38:02.270Z,4.52
2017-11-07T06:38:42.800Z,4.52
2017-11-07T06:39:23.333Z,4.45
2017-11-07T06:40:03.846Z,4.52
2017-11-07T06:40:44.373Z,4.55
2017-11-07T06:41:24.907Z,4.55
2017-11-07T06:42:05.424Z,4.42
2017-11-07T06:42:45.946Z,4.4
2017-11-07T06:43:26.485Z,4.41
2017-11-07T06:44:07.010Z,4.47
2017-11-07T06:44:47.545Z,4.47
2017-11-07T06:45:28.061Z,4.44
2017-11-07T06:46:08.581Z,4.5
2017-11-07T06:46:49.130Z,4.55
2017-11-07T06:47:29.656Z,4.41
2017-11-07T06:48:10.186Z,4.5
2017-11-07T06:48:50.698Z,4.55
2017-11-07T06:49:31.212Z,4.48
2017-11-07T06:50:11.757Z,4.52
2017-11-07T06:50:52.288Z,4.55
2017-11-07T06:51:32.926Z,4.42
2017-11-07T06:52:13.673Z,4.52
2017-11-07T06:52:54.236Z,4.41
2017-11-07T06:53:34.764Z,4.5
2017-11-07T06:54:15.325Z,4.48
2017-11-07T06:54:55.860Z,4.5
2017-11-07T06:55:36.387Z,4.5
2017-11-07T06:56:16.924Z,4.48
2017-11-07T06:56:57.446Z,4.52
2017-11-07T06:57:37.983Z,4.36
2017-11-07T06:58:18.502Z,4.33
2017-11-07T06:58:59.001Z,4.41
2017-11-07T06:59:39.531Z,4.41
2017-11-07T07:00:20.039Z,4.37
2017-11-07T07:01:00.557Z,4.47
2017-11-07T07:01:41.086Z,4.36
2017-11-07T07:02:21.611Z,4.4
2017-11-07T07:03:02.145Z,4.42
2017-11-07T07:03:42.673Z,4.42
2017-11-07T07:04:23.195Z,4.4
2017-11-07T07:05:03.725Z,4.37
2017-11-07T07:05:44.247Z,4.47
2017-11-07T07:06:24.786Z,4.36
2017-11-07T07:07:05.292Z,4.41
2017-11-07T07:07:45.818Z,4.41
2017-11-07T07:08:26.331Z,4.4
2017-11-07T07:09:06.867Z,4.44
2017-11-07T07:09:47.397Z,4.36
2017-11-07T07:10:27.916Z,4.47
2017-11-07T07:11:08.442Z,4.37
2017-11-07T07:11:48.964Z,4.42
2017-11-07T07:12:29.505Z,4.41
2017-11-07T07:13:10.031Z,4.4
2017-11-07T07:13:50.553Z,4.42
2017-11-07T07:14:31.088Z,4.41
2017-11-07T07:15:11.626Z,4.42
2017-11-07T07:15:52.140Z,4.42
2017-11-07T07:16:32.658Z,4.42
2017-11-07T07:17:13.203Z,4.44
2017-11-07T07:17:53.731Z,4.37
2017-11-07T07:18:34.256Z,4.44
2017-11-07T07:19:14.773Z,4.5
2017-11-07T07:19:55.309Z,4.47
2017-11-07T07:20:35.842Z,4.51
2017-11-07T07:21:16.371Z,4.48
2017-11-07T07:21:56.903Z,4.54
2017-11-07T07:22:37.426Z,4.52
2017-11-07T07:23:17.959Z,4.5
2017-11-07T07:23:58.500Z,4.44
2017-11-07T07:24:39.036Z,4.5
2017-11-07T07:25:19.561Z,4.51
2017-11-07T07:26:00.093Z,4.52
2017-11-07T07:26:40.625Z,4.52
2017-11-07T07:27:21.152Z,4.52
2017-11-07T07:28:01.707Z,4.44
2017-11-07T07:28:42.213Z,4.54
2017-11-07T07:29:22.746Z,4.47
2017-11-07T07:30:03.259Z,4.55
2017-11-07T07:30:43.779Z,4.47
2017-11-07T07:31:24.305Z,4.47
2017-11-07T07:32:04.823Z,4.63
2017-11-07T07:32:45.362Z,4.52
2017-11-07T07:33:25.893Z,4.54
2017-11-07T07:34:06.412Z,4.55
2017-11-07T07:34:46.941Z,4.54
2017-11-07T07:35:27.470Z,4.5
2017-11-07T07:36:07.993Z,4.54
2017-11-07T07:36:48.515Z,4.54
2017-11-07T07:37:29.034Z,4.55
2017-11-07T07:38:09.557Z,4.66
2017-11-07T07:38:50.076Z,4.51
2017-11-07T07:39:30.590Z,4.59
2017-11-07T07:40:11.106Z,4.58
2017-11-07T07:40:51.628Z,4.67
2017-11-07T07:41:32.156Z,4.55
2017-11-07T07:42:12.696Z,4.58
2017-11-07T07:42:53.232Z,4.58
2017-11-07T07:43:33.752Z,4.55
2017-11-07T07:44:14.280Z,4.54
2017-11-07T07:44:54.827Z,4.47
2017-11-07T07:45:35.361Z,4.51
2017-11-07T07:46:15.908Z,4.54
2017-11-07T07:46:56.434Z,4.55
2017-11-07T07:47:36.984Z,4.65
2017-11-07T07:48:17.519Z,4.63
2017-11-07T07:48:58.051Z,4.65
2017-11-07T07:49:38.566Z,4.62
2017-11-07T07:50:19.086Z,4.63
2017-11-07T07:50:59.615Z,4.58
2017-11-07T07:51:40.146Z,4.54
2017-11-07T07:52:20.687Z,4.47
2017-11-07T07:53:01.231Z,4.55
2017-11-07T07:53:41.761Z,4.59
2017-11-07T07:54:22.278Z,4.55
2017-11-07T07:55:02.798Z,4.51
2017-11-07T07:55:43.322Z,4.52
2017-11-07T07:56:23.855Z,4.58
2017-11-07T07:57:04.375Z,4.65
2017-11-07T07:57:44.894Z,4.63
2017-11-07T07:58:25.434Z,4.62
2017-11-07T07:59:05.962Z,4.65
2017-11-07T07:59:46.492Z,4.65
2017-11-07T08:00:27.026Z,4.65
2017-11-07T08:01:07.538Z,4.63
2017-11-07T08:01:48.068Z,4.67
2017-11-07T08:02:28.600Z,4.62
2017-11-07T08:03:09.109Z,4.65
2017-11-07T08:03:49.648Z,4.67
2017-11-07T08:04:30.187Z,4.67
2017-11-07T08:05:10.717Z,4.69
2017-11-07T08:05:51.246Z,4.73
2017-11-07T08:06:31.770Z,4.7
2017-11-07T08:07:12.294Z,4.66
2017-11-07T08:07:52.836Z,4.72
2017-11-07T08:08:33.369Z,4.69
2017-11-07T08:09:13.899Z,4.67
2017-11-07T08:09:54.423Z,4.75
2017-11-07T08:10:34.938Z,4.7
2017-11-07T08:11:15.469Z,4.75
2017-11-07T08:11:55.996Z,4.78
2017-11-07T08:12:36.562Z,4.84
2017-11-07T08:13:17.087Z,4.84
2017-11-07T08:13:57.630Z,4.84
2017-11-07T08:14:38.166Z,4.86
2017-11-07T08:15:18.696Z,4.86
2017-11-07T08:15:59.220Z,4.88
2017-11-07T08:16:39.782Z,4.89
2017-11-07T08:17:20.311Z,4.92
2017-11-07T08:18:00.840Z,4.86
2017-11-07T08:18:41.372Z,4.92
2017-11-07T08:19:21.905Z,4.94
2017-11-07T08:20:02.440Z,4.91
2017-11-07T08:20:42.970Z,4.86
2017-11-07T08:21:23.503Z,4.92
2017-11-07T08:22:04.029Z,4.86
2017-11-07T08:22:44.561Z,4.89
2017-11-07T08:23:25.101Z,4.99
2017-11-07T08:24:05.626Z,4.97
2017-11-07T08:24:46.159Z,4.97
2017-11-07T08:25:26.678Z,5
2017-11-07T08:26:07.209Z,4.94
2017-11-07T08:26:47.772Z,4.97
2017-11-07T08:27:28.302Z,5.04
2017-11-07T08:28:08.822Z,5.09
2017-11-07T08:28:49.331Z,5.12
2017-11-07T08:29:29.873Z,5.09
2017-11-07T08:30:10.406Z,5.04
2017-11-07T08:30:50.937Z,5.07
2017-11-07T08:31:31.479Z,5.07
2017-11-07T08:32:12.003Z,5.12
2017-11-07T08:32:52.529Z,5.17
2017-11-07T08:33:33.062Z,5.1
2017-11-07T08:34:13.598Z,5.15
2017-11-07T08:34:54.135Z,5.1
2017-11-07T08:35:34.671Z,5.15
2017-11-07T08:36:15.200Z,5.06
2017-11-07T08:36:55.712Z,5.12
2017-11-07T08:37:36.267Z,5.1
2017-11-07T08:38:16.784Z,5.12
2017-11-07T08:38:57.320Z,5.13
2017-11-07T08:39:37.853Z,5.07
2017-11-07T08:40:18.387Z,5.17
2017-11-07T08:40:58.907Z,5.15
2017-11-07T08:41:39.435Z,5.17
2017-11-07T08:42:19.962Z,5.17
2017-11-07T08:43:00.484Z,5.13
2017-11-07T08:43:41.020Z,5.25
2017-11-07T08:44:21.546Z,5.18
2017-11-07T08:45:02.092Z,5.18
2017-11-07T08:45:42.622Z,5.15
2017-11-07T08:46:23.155Z,5.17
2017-11-07T08:47:03.698Z,5.17
2017-11-07T08:47:44.219Z,5.12
2017-11-07T08:48:24.745Z,5.12
2017-11-07T08:49:05.298Z,5.17
2017-11-07T08:49:45.814Z,5.13
2017-11-07T08:50:26.356Z,5.13
2017-11-07T08:51:06.887Z,5.18
2017-11-07T08:51:47.409Z,5.15
2017-11-07T08:52:27.933Z,5.13
2017-11-07T08:53:08.458Z,5.18
2017-11-07T08:53:48.978Z,5.18
2017-11-07T08:54:29.518Z,5.2
2017-11-07T08:55:10.063Z,5.12
2017-11-07T08:55:50.594Z,5.13
2017-11-07T08:56:31.113Z,5.25
2017-11-07T08:57:11.659Z,5.24
2017-11-07T08:57:52.184Z,5.13
2017-11-07T08:58:32.724Z,5.3
2017-11-07T08:59:13.251Z,5.22
2017-11-07T08:59:53.784Z,5.28
2017-11-07T09:00:34.300Z,5.31
2017-11-07T09:01:14.828Z,5.35
2017-11-07T09:01:55.372Z,5.31
2017-11-07T09:02:35.901Z,5.31